Airport View

Enter AWOS ICAO identifier for current METAR.

ex. KFNL

KUCP 242356Z AUTO 17004KT 10SM CLR 26/18 A3002 RMK AO2 SLP175 6//// T02610183 10294 20261 55007 PNO $

25 May 2020 00:38

Frequency: 124.175

Phone: (724) 652-4184

Other Area AWOS: KBVI - KPJC - KYNG - KBTP

TAF KBVI 242320Z 2500/2524 16003KT P6SM BKN250 FM251500 15005KT P6SM SCT040